Weather reports worldwide

Advertisment
Newcastle, United Kingdom (3245): temperature & dewpoint: 12.08.2017 00:00:00 - 18.08.2017 00:00:00 (BST)Newcastle, United Kingdom (3245): wind speed: 12.08.2017 00:00:00 - 18.08.2017 00:00:00 (BST)Newcastle, United Kingdom (3245): wind direction: 12.08.2017 00:00:00 - 18.08.2017 00:00:00 (BST)Newcastle, United Kingdom (3245): visibility: 12.08.2017 00:00:00 - 18.08.2017 00:00:00 (BST)
Date & Time tt [°C] td [°C] ff [km/h] ff [kn] dd vv [km]
18.08.2017 00:00:00 15,0 10,0 8 4 S 10
17.08.2017 23:00:00 15,0 11,0 11 6 S 10
17.08.2017 22:00:00 15,0 10,0 9 5 SW 10
17.08.2017 21:00:00 16,0 11,0 11 6 SSW 10
17.08.2017 20:00:00 18,0 11,0 15 8 SW 10
17.08.2017 19:00:00 19,0 10,0 15 8 SW 10
17.08.2017 18:00:00 20,0 11,0 18 10 SW 10
17.08.2017 17:00:00 21,0 10,0 18 10 WSW 10
17.08.2017 16:00:00 23,0 10,0 18 10 SW 10
17.08.2017 15:00:00 22,0 11,0 16 9 WSW 10
17.08.2017 14:00:00 23,0 11,0 15 8 WSW 10
17.08.2017 13:00:00 22,0 9,0 13 7 WSW 10
17.08.2017 12:00:00 21,0 11,0 8 4 - 10
17.08.2017 11:00:00 19,0 12,0 9 5 SW 10
17.08.2017 10:00:00 18,0 13,0 9 5 WSW 10
17.08.2017 09:00:00 16,0 14,0 13 7 W 10
17.08.2017 08:00:00 16,0 15,0 9 5 SW 10
17.08.2017 07:00:00 14,0 13,0 9 5 SSW 10
17.08.2017 06:00:00 15,0 14,0 5 3 - 10
17.08.2017 05:00:00 15,0 13,0 5 3 WSW 10
17.08.2017 04:00:00 15,0 13,0 11 6 SSW 10
17.08.2017 03:00:00 16,0 13,0 16 9 SSW 10
17.08.2017 02:00:00 17,0 13,0 15 8 SSW 10
17.08.2017 01:00:00 17,0 12,0 11 6 S 10
17.08.2017 00:00:00 17,0 12,0 13 7 S 10
16.08.2017 23:00:00 17,0 12,0 16 9 S 10
16.08.2017 22:00:00 18,0 12,0 15 8 S 10
16.08.2017 21:00:00 18,0 11,0 9 5 S 10
16.08.2017 20:00:00 18,0 10,0 11 6 S 10
16.08.2017 19:00:00 19,0 10,0 16 9 S 10
16.08.2017 18:00:00 19,0 10,0 18 10 SSW 10
16.08.2017 17:00:00 19,0 9,0 21 11 S 10
16.08.2017 16:00:00 20,0 10,0 18 10 SSW 10
16.08.2017 15:00:00 19,0 10,0 18 10 SSW 10
16.08.2017 14:00:00 19,0 10,0 15 8 SSW 10
16.08.2017 13:00:00 19,0 10,0 16 9 SSW 10
16.08.2017 12:00:00 18,0 11,0 16 9 SSW 10
16.08.2017 11:00:00 17,0 10,0 21 11 S 10
16.08.2017 10:00:00 16,0 10,0 15 8 S 10
16.08.2017 09:00:00 15,0 11,0 11 6 S 10
16.08.2017 08:00:00 14,0 12,0 4 2 - 10
16.08.2017 07:00:00 11,0 10,0 8 4 SE 10
16.08.2017 06:00:00 9,0 8,0 2 1 - 10
16.08.2017 05:00:00 10,0 9,0 4 2 - 10
16.08.2017 04:00:00 12,0 10,0 2 1 - 10
16.08.2017 03:00:00 12,0 10,0 11 6 WSW 10
16.08.2017 02:00:00 11,0 9,0 8 4 SSW 10
16.08.2017 01:00:00 11,0 9,0 5 3 SW 10
16.08.2017 00:00:00 12,0 10,0 8 4 WSW 10
15.08.2017 23:00:00 12,0 9,0 5 3 SW 10
15.08.2017 22:00:00 12,0 9,0 5 3 S 10
15.08.2017 21:00:00 14,0 10,0 15 8 W 10
15.08.2017 20:00:00 16,0 10,0 22 12 W 10
15.08.2017 19:00:00 17,0 9,0 26 14 W 10
15.08.2017 18:00:00 18,0 9,0 28 15 W 10
15.08.2017 17:00:00 19,0 10,0 24 13 W 10
15.08.2017 16:00:00 19,0 11,0 22 12 WSW 10
15.08.2017 15:00:00 17,0 12,0 18 10 WSW 10
15.08.2017 14:00:00 18,0 11,0 22 12 W 10
15.08.2017 13:00:00 18,0 12,0 24 13 W 10
15.08.2017 12:00:00 18,0 12,0 26 14 W 10
15.08.2017 11:00:00 18,0 13,0 22 12 W 10
15.08.2017 10:00:00 17,0 13,0 16 9 WSW 10
15.08.2017 09:00:00 16,0 14,0 9 5 SW 10
15.08.2017 08:00:00 15,0 14,0 8 4 SW 10
15.08.2017 07:00:00 14,0 13,0 4 2 - 10
15.08.2017 06:00:00 - - - - - -
15.08.2017 05:00:00 14,0 13,0 9 5 S 10
15.08.2017 04:00:00 15,0 14,0 9 5 S 10
15.08.2017 03:00:00 15,0 14,0 8 4 SSW 10
15.08.2017 02:00:00 15,0 14,0 13 7 S 9
15.08.2017 01:00:00 15,0 14,0 11 6 S 8
15.08.2017 00:00:00 15,0 13,0 8 4 S 10
14.08.2017 23:00:00 16,0 13,0 8 4 SSE 10
14.08.2017 22:00:00 16,0 13,0 5 3 - 10
14.08.2017 21:00:00 17,0 13,0 8 4 S 10
14.08.2017 20:00:00 18,0 13,0 9 5 S 10
14.08.2017 19:00:00 18,0 12,0 13 7 S 10
14.08.2017 18:00:00 19,0 12,0 9 5 S 10
14.08.2017 17:00:00 19,0 12,0 13 7 S 10
14.08.2017 16:00:00 20,0 13,0 9 5 S 10
14.08.2017 15:00:00 19,0 13,0 11 6 S 10
14.08.2017 14:00:00 18,0 12,0 15 8 SSW 10
14.08.2017 13:00:00 18,0 12,0 16 9 S 10
14.08.2017 12:00:00 17,0 12,0 13 7 S 10
14.08.2017 11:00:00 15,0 12,0 8 4 SSE 10
14.08.2017 10:00:00 14,0 12,0 5 3 - 10
14.08.2017 09:00:00 13,0 11,0 11 6 S 10
14.08.2017 08:00:00 13,0 10,0 9 5 S 10
14.08.2017 07:00:00 13,0 10,0 11 6 S 10
14.08.2017 06:00:00 13,0 10,0 11 6 S 10
14.08.2017 05:00:00 13,0 9,0 5 3 - 10
14.08.2017 04:00:00 13,0 9,0 11 6 S 10
14.08.2017 03:00:00 13,0 9,0 5 3 - 10
14.08.2017 02:00:00 13,0 9,0 4 2 - 10
14.08.2017 01:00:00 13,0 9,0 8 4 SSW 10
14.08.2017 00:00:00 13,0 10,0 5 3 - 10
13.08.2017 23:00:00 13,0 9,0 4 2 SE 10
13.08.2017 22:00:00 13,0 9,0 4 2 SSE 10
13.08.2017 21:00:00 13,0 9,0 4 2 SE 10
13.08.2017 20:00:00 15,0 9,0 5 3 - 10
13.08.2017 19:00:00 16,0 9,0 5 3 - 10
13.08.2017 18:00:00 16,0 9,0 11 6 ESE 10
13.08.2017 17:00:00 18,0 9,0 13 7 ESE 10
13.08.2017 16:00:00 19,0 6,0 11 6 W 10
13.08.2017 15:00:00 18,0 6,0 11 6 WNW 10
13.08.2017 14:00:00 18,0 8,0 13 7 W 10
13.08.2017 13:00:00 16,0 7,0 15 8 WNW 10
13.08.2017 12:00:00 - - - - - -
13.08.2017 11:00:00 16,0 8,0 15 8 W 10
13.08.2017 10:00:00 14,0 9,0 16 9 W 10
13.08.2017 09:00:00 13,0 9,0 11 6 W 10
13.08.2017 08:00:00 11,0 9,0 9 5 W 10
13.08.2017 07:00:00 9,0 8,0 13 7 W 10
13.08.2017 06:00:00 8,0 7,0 11 6 WSW 10
13.08.2017 05:00:00 9,0 8,0 11 6 WSW 10
13.08.2017 04:00:00 9,0 8,0 9 5 W 10
13.08.2017 03:00:00 8,0 8,0 2 1 SSW 10
13.08.2017 02:00:00 10,0 9,0 5 3 SW 10
13.08.2017 01:00:00 10,0 9,0 5 3 SW 10
13.08.2017 00:00:00 11,0 10,0 5 3 - 10
12.08.2017 23:00:00 11,0 10,0 8 4 SW 10
12.08.2017 22:00:00 12,0 11,0 4 2 S 10
12.08.2017 21:00:00 13,0 11,0 5 3 - 10
12.08.2017 20:00:00 13,0 11,0 0 0 N 10
12.08.2017 19:00:00 13,0 11,0 2 1 - 10
12.08.2017 18:00:00 14,0 12,0 2 1 - 10
12.08.2017 17:00:00 15,0 12,0 2 1 - 10
12.08.2017 16:00:00 15,0 12,0 5 3 - 10
12.08.2017 15:00:00 14,0 13,0 9 5 NNE 10
12.08.2017 14:00:00 14,0 13,0 11 6 NNE 10
12.08.2017 13:00:00 13,0 12,0 15 8 NNE 3,0
12.08.2017 12:00:00 15,0 13,0 15 8 NW 6
12.08.2017 11:00:00 15,0 12,0 15 8 W 10
12.08.2017 10:00:00 16,0 13,0 18 10 W 10
12.08.2017 09:00:00 14,0 12,0 16 9 W 10
12.08.2017 08:00:00 14,0 12,0 15 8 W 10
12.08.2017 07:00:00 13,0 12,0 13 7 W 10
12.08.2017 06:00:00 13,0 12,0 13 7 W 10
12.08.2017 05:00:00 12,0 11,0 8 4 W 10
12.08.2017 04:00:00 12,0 11,0 11 6 WSW 10
12.08.2017 03:00:00 12,0 11,0 15 8 W 10
12.08.2017 02:00:00 13,0 11,0 21 11 W 10
12.08.2017 01:00:00 14,0 11,0 15 8 W 10
12.08.2017 00:00:00 15,0 12,0 16 9 W 10

tt = temperature
td = dewpoint
ff = wind speed
dd = wind direction
vv = visibility

Next stations